createdAt,value
2022-09-11T00:00:39.128Z,100.00
2022-09-11T00:03:05.556Z,100.00
2022-09-11T00:05:32.027Z,100.00
2022-09-11T00:07:58.457Z,100.00
2022-09-11T00:10:24.835Z,100.00
2022-09-11T00:12:51.285Z,100.00
2022-09-11T00:15:17.685Z,100.00
2022-09-11T00:17:44.096Z,100.00
2022-09-11T00:20:10.494Z,100.00
2022-09-11T00:22:36.875Z,100.00
2022-09-11T00:25:03.446Z,100.00
2022-09-11T00:27:29.838Z,100.00
2022-09-11T00:29:56.237Z,100.00
2022-09-11T00:32:23.901Z,100.00
2022-09-11T00:34:50.326Z,100.00
2022-09-11T00:37:16.733Z,100.00
2022-09-11T00:39:43.185Z,100.00
2022-09-11T00:42:10.055Z,100.00
2022-09-11T00:44:37.769Z,100.00
2022-09-11T00:47:09.585Z,100.00
2022-09-11T00:49:48.550Z,100.00
2022-09-11T00:53:08.660Z,100.00
2022-09-11T00:55:37.146Z,100.00
2022-09-11T00:58:07.237Z,100.00
2022-09-11T01:00:33.910Z,100.00
2022-09-11T01:03:00.437Z,100.00
2022-09-11T01:05:28.668Z,100.00
2022-09-11T01:07:56.007Z,100.00
2022-09-11T01:10:46.974Z,100.00
2022-09-11T01:13:25.341Z,100.00
2022-09-11T01:16:03.718Z,100.00
2022-09-11T01:18:32.254Z,100.00
2022-09-11T01:21:34.403Z,100.00
2022-09-11T01:24:11.500Z,100.00
2022-09-11T01:27:06.927Z,100.00
2022-09-11T01:29:44.938Z,100.00
2022-09-11T01:32:24.963Z,100.00
2022-09-11T01:34:54.386Z,100.00
2022-09-11T01:37:31.228Z,100.00
2022-09-11T01:40:02.054Z,100.00
2022-09-11T01:42:31.409Z,100.00
2022-09-11T01:44:57.903Z,100.00
2022-09-11T01:47:25.830Z,100.00
2022-09-11T01:49:57.595Z,100.00
2022-09-11T01:52:28.113Z,100.00
2022-09-11T01:54:59.676Z,100.00
2022-09-11T01:57:37.669Z,100.00
2022-09-11T02:00:08.071Z,100.00
2022-09-11T02:02:36.311Z,100.00
2022-09-11T02:05:15.531Z,100.00
2022-09-11T02:08:03.675Z,100.00
2022-09-11T02:10:34.657Z,100.00
2022-09-11T02:13:11.068Z,100.00
2022-09-11T02:15:44.539Z,100.00
2022-09-11T02:18:17.510Z,100.00
2022-09-11T02:20:47.474Z,100.00
2022-09-11T02:23:15.256Z,100.00
2022-09-11T02:25:41.666Z,100.00
2022-09-11T02:28:08.099Z,100.00
2022-09-11T02:30:34.556Z,100.00
2022-09-11T02:33:01.676Z,100.00
2022-09-11T02:35:37.086Z,100.00
2022-09-11T02:38:31.962Z,100.00
2022-09-11T02:41:16.422Z,100.00
2022-09-11T02:43:49.686Z,100.00
2022-09-11T02:46:37.410Z,100.00
2022-09-11T02:49:10.778Z,100.00
2022-09-11T02:52:00.421Z,100.00
2022-09-11T02:54:31.476Z,100.00
2022-09-11T02:57:22.081Z,100.00
2022-09-11T03:00:00.224Z,100.00
2022-09-11T03:02:27.707Z,100.00
2022-09-11T03:04:54.126Z,100.00
2022-09-11T03:07:20.554Z,100.00
2022-09-11T03:09:46.942Z,100.00
2022-09-11T03:12:13.397Z,100.00
2022-09-11T03:14:39.815Z,100.00
2022-09-11T03:17:06.455Z,100.00
2022-09-11T03:19:32.910Z,100.00
2022-09-11T03:22:14.634Z,100.00
2022-09-11T03:24:41.040Z,100.00
2022-09-11T03:27:07.428Z,100.00
2022-09-11T03:29:33.863Z,100.00
2022-09-11T03:32:00.791Z,100.00
2022-09-11T03:34:27.215Z,100.00
2022-09-11T03:37:08.286Z,100.00
2022-09-11T03:39:34.766Z,100.00
2022-09-11T03:42:01.211Z,100.00
2022-09-11T03:44:27.630Z,100.00
2022-09-11T03:46:54.094Z,100.00
2022-09-11T03:49:20.509Z,100.00
2022-09-11T03:51:47.809Z,100.00
2022-09-11T03:54:16.028Z,100.00
2022-09-11T03:56:43.011Z,100.00
2022-09-11T03:59:09.472Z,100.00
2022-09-11T04:01:35.922Z,100.00
2022-09-11T04:04:04.100Z,100.00
2022-09-11T04:06:32.559Z,100.00
2022-09-11T04:08:59.060Z,100.00
2022-09-11T04:11:25.512Z,100.00
2022-09-11T04:17:38.394Z,100.00
2022-09-11T04:20:05.495Z,100.00
2022-09-11T04:22:31.933Z,100.00
2022-09-11T04:24:58.336Z,100.00
2022-09-11T04:27:24.887Z,100.00
2022-09-11T04:29:51.808Z,100.00
2022-09-11T04:32:18.238Z,100.00
2022-09-11T04:34:44.785Z,100.00
2022-09-11T04:37:11.555Z,100.00
2022-09-11T04:39:37.984Z,100.00
2022-09-11T04:42:04.633Z,100.00
2022-09-11T04:44:32.420Z,100.00
2022-09-11T04:46:59.124Z,100.00
2022-09-11T04:49:25.509Z,100.00
2022-09-11T04:52:49.838Z,100.00
2022-09-11T04:55:16.250Z,100.00
2022-09-11T04:57:42.696Z,100.00
2022-09-11T05:00:12.927Z,100.00
2022-09-11T05:02:40.476Z,100.00
2022-09-11T05:05:09.022Z,100.00
2022-09-11T05:07:35.874Z,100.00
2022-09-11T05:10:03.008Z,100.00
2022-09-11T05:12:31.792Z,100.00
2022-09-11T05:14:59.003Z,100.00
2022-09-11T05:17:25.443Z,100.00
2022-09-11T05:19:51.827Z,100.00
2022-09-11T05:22:18.213Z,100.00
2022-09-11T05:24:44.600Z,100.00
2022-09-11T05:27:12.180Z,100.00
2022-09-11T05:29:39.143Z,100.00
2022-09-11T05:32:05.974Z,100.00
2022-09-11T05:34:32.560Z,100.00
2022-09-11T05:36:59.080Z,100.00
2022-09-11T05:39:25.494Z,100.00
2022-09-11T05:45:38.515Z,100.00
2022-09-11T05:48:04.966Z,100.00
2022-09-11T05:50:32.687Z,100.00
2022-09-11T05:52:59.078Z,100.00
2022-09-11T05:55:25.486Z,100.00
2022-09-11T05:57:52.630Z,100.00
2022-09-11T06:00:19.360Z,100.00
2022-09-11T06:02:45.937Z,100.00
2022-09-11T06:05:12.565Z,100.00
2022-09-11T06:07:39.011Z,100.00
2022-09-11T06:10:05.805Z,100.00
2022-09-11T06:12:32.278Z,100.00
2022-09-11T06:14:58.666Z,100.00
2022-09-11T06:17:25.115Z,100.00
2022-09-11T06:19:51.587Z,100.00
2022-09-11T06:23:09.369Z,100.00
2022-09-11T06:25:36.681Z,100.00
2022-09-11T06:28:03.886Z,100.00
2022-09-11T06:30:30.482Z,100.00
2022-09-11T06:32:57.611Z,100.00
2022-09-11T06:35:24.039Z,100.00
2022-09-11T06:37:50.709Z,100.00
2022-09-11T06:44:05.099Z,100.00
2022-09-11T06:46:31.654Z,100.00
2022-09-11T06:48:58.128Z,100.00
2022-09-11T06:51:24.600Z,100.00
2022-09-11T06:53:57.791Z,100.00
2022-09-11T06:56:24.671Z,100.00
2022-09-11T06:58:51.080Z,100.00
2022-09-11T07:01:19.154Z,100.00
2022-09-11T07:03:50.891Z,100.00
2022-09-11T07:06:19.755Z,100.00
2022-09-11T07:08:54.621Z,100.00
2022-09-11T07:11:21.337Z,100.00
2022-09-11T07:13:50.246Z,100.00
2022-09-11T07:16:17.163Z,100.00
2022-09-11T07:18:46.922Z,100.00
2022-09-11T07:21:20.911Z,100.00
2022-09-11T07:23:49.570Z,100.00
2022-09-11T07:26:16.672Z,100.00
2022-09-11T07:28:43.059Z,100.00
2022-09-11T07:31:12.288Z,100.00
2022-09-11T07:33:40.088Z,100.00
2022-09-11T07:36:10.563Z,100.00
2022-09-11T07:38:36.951Z,100.00
2022-09-11T07:41:03.357Z,100.00
2022-09-11T07:43:29.742Z,100.00
2022-09-11T07:45:56.549Z,100.00
2022-09-11T07:48:23.063Z,100.00
2022-09-11T07:54:36.678Z,100.00
2022-09-11T07:57:03.149Z,100.00
2022-09-11T07:59:30.856Z,100.00
2022-09-11T08:01:57.314Z,100.00
2022-09-11T08:04:23.779Z,100.00
2022-09-11T08:07:10.639Z,100.00
2022-09-11T08:13:18.254Z,100.00
2022-09-11T08:15:48.316Z,100.00
2022-09-11T08:18:15.043Z,100.00
2022-09-11T08:20:41.921Z,100.00
2022-09-11T08:23:09.493Z,100.00
2022-09-11T08:25:39.133Z,100.00
2022-09-11T08:28:06.094Z,100.00
2022-09-11T08:30:33.184Z,100.00
2022-09-11T08:33:01.331Z,100.00
2022-09-11T08:35:39.167Z,100.00
2022-09-11T08:38:05.624Z,100.00
2022-09-11T08:40:37.978Z,100.00
2022-09-11T08:43:04.838Z,100.00
2022-09-11T08:45:34.541Z,100.00
2022-09-11T08:51:49.927Z,100.00
2022-09-11T08:54:29.015Z,100.00
2022-09-11T08:57:42.078Z,100.00
2022-09-11T09:00:16.326Z,100.00
2022-09-11T09:03:02.490Z,100.00
2022-09-11T09:09:23.685Z,100.00
2022-09-11T09:12:00.539Z,100.00
2022-09-11T09:14:30.148Z,100.00
2022-09-11T09:16:59.485Z,100.00
2022-09-11T09:19:40.180Z,100.00
2022-09-11T09:22:50.991Z,100.00
2022-09-11T09:25:22.548Z,100.00
2022-09-11T09:27:52.379Z,100.00
2022-09-11T09:30:24.564Z,100.00
2022-09-11T09:32:50.832Z,100.00
2022-09-11T09:35:27.041Z,100.00
2022-09-11T09:37:54.173Z,100.00
2022-09-11T09:40:20.621Z,100.00
2022-09-11T09:42:57.675Z,100.00
2022-09-11T09:45:39.366Z,100.00
2022-09-11T09:48:08.770Z,100.00
2022-09-11T09:50:41.709Z,100.00
2022-09-11T09:53:38.029Z,100.00
2022-09-11T09:56:05.380Z,100.00
2022-09-11T09:58:34.715Z,100.00
2022-09-11T10:01:01.237Z,100.00
2022-09-11T10:03:27.993Z,100.00
2022-09-11T10:05:55.923Z,100.00
2022-09-11T10:08:35.485Z,100.00
2022-09-11T10:11:07.478Z,100.00
2022-09-11T10:13:37.768Z,100.00
2022-09-11T10:16:05.829Z,100.00
2022-09-11T10:18:35.879Z,100.00
2022-09-11T10:21:11.410Z,100.00
2022-09-11T10:23:54.697Z,100.00
2022-09-11T10:26:37.350Z,100.00
2022-09-11T10:29:13.310Z,100.00
2022-09-11T10:31:40.972Z,100.00
2022-09-11T10:34:14.901Z,100.00
2022-09-11T10:36:52.259Z,100.00
2022-09-11T10:39:20.061Z,100.00
2022-09-11T10:41:49.765Z,100.00
2022-09-11T10:44:16.857Z,100.00
2022-09-11T10:46:45.119Z,100.00
2022-09-11T10:49:11.467Z,100.00
2022-09-11T10:51:41.340Z,100.00
2022-09-11T10:54:16.685Z,100.00
2022-09-11T10:57:18.518Z,100.00
2022-09-11T11:00:14.995Z,100.00
2022-09-11T11:02:44.663Z,100.00
2022-09-11T11:05:19.836Z,100.00
2022-09-11T11:08:07.656Z,100.00
2022-09-11T11:11:14.749Z,100.00
2022-09-11T11:13:57.875Z,100.00
2022-09-11T11:16:39.631Z,100.00
2022-09-11T11:19:32.110Z,100.00
2022-09-11T11:22:03.928Z,100.00
2022-09-11T11:24:48.727Z,100.00
2022-09-11T11:27:33.811Z,100.00
2022-09-11T11:30:19.386Z,100.00
2022-09-11T11:33:27.068Z,100.00
2022-09-11T11:36:10.849Z,100.00
2022-09-11T11:39:07.342Z,100.00
2022-09-11T11:41:44.525Z,100.00
2022-09-11T11:44:15.707Z,100.00
2022-09-11T11:46:45.994Z,100.00
2022-09-11T11:49:19.689Z,100.00
2022-09-11T11:52:01.323Z,100.00
2022-09-11T11:54:38.756Z,100.00
2022-09-11T11:57:26.498Z,100.00
2022-09-11T12:00:07.222Z,100.00
2022-09-11T12:02:39.741Z,100.00
2022-09-11T12:05:17.260Z,100.00
2022-09-11T12:07:47.297Z,100.00
2022-09-11T12:10:24.327Z,100.00
2022-09-11T12:12:54.258Z,100.00
2022-09-11T12:15:22.719Z,100.00
2022-09-11T12:18:00.316Z,100.00
2022-09-11T12:20:34.171Z,100.00
2022-09-11T12:23:01.089Z,100.00
2022-09-11T12:25:31.052Z,100.00
2022-09-11T12:28:25.696Z,100.00
2022-09-11T12:31:12.789Z,100.00
2022-09-11T12:33:47.117Z,100.00
2022-09-11T12:36:17.395Z,100.00
2022-09-11T12:38:49.631Z,100.00
2022-09-11T12:41:23.417Z,100.00
2022-09-11T12:43:50.008Z,100.00
2022-09-11T12:46:22.371Z,100.00
2022-09-11T12:49:11.399Z,100.00
2022-09-11T12:51:40.202Z,100.00
2022-09-11T12:54:22.519Z,100.00
2022-09-11T12:57:16.206Z,91.75
2022-09-11T12:59:44.276Z,84.65
2022-09-11T13:02:28.699Z,74.63
2022-09-11T13:04:55.637Z,72.55
2022-09-11T13:07:31.147Z,69.97
2022-09-11T13:10:01.386Z,65.30
2022-09-11T13:12:27.702Z,64.15
2022-09-11T13:14:58.046Z,60.73
2022-09-11T13:17:34.405Z,58.48
2022-09-11T13:20:07.750Z,57.05
2022-09-11T13:22:35.178Z,53.96
2022-09-11T13:25:16.624Z,52.52
2022-09-11T13:27:49.953Z,53.45
2022-09-11T13:30:19.287Z,56.00
2022-09-11T13:36:34.658Z,54.89
2022-09-11T13:39:02.761Z,53.61
2022-09-11T13:45:15.814Z,56.11
2022-09-11T13:51:34.768Z,53.76
2022-09-11T13:54:09.226Z,49.73
2022-09-11T13:56:48.612Z,51.23
2022-09-11T14:00:00.473Z,49.68
2022-09-11T14:02:37.205Z,51.74
2022-09-11T14:05:13.771Z,52.43
2022-09-11T14:07:47.562Z,52.35
2022-09-11T14:10:21.568Z,51.49
2022-09-11T14:13:04.401Z,53.10
2022-09-11T14:15:43.843Z,52.21
2022-09-11T14:21:51.461Z,50.94
2022-09-11T14:24:32.761Z,50.33
2022-09-11T14:27:01.584Z,51.18
2022-09-11T14:29:31.330Z,53.13
2022-09-11T14:32:33.019Z,53.41
2022-09-11T14:34:59.883Z,53.73
2022-09-11T14:41:14.006Z,46.20
2022-09-11T14:43:40.567Z,47.33
2022-09-11T14:46:07.125Z,50.13
2022-09-11T14:48:34.863Z,53.46
2022-09-11T14:51:02.397Z,56.60
2022-09-11T14:53:30.915Z,58.84
2022-09-11T14:56:01.289Z,60.29
2022-09-11T14:58:28.918Z,62.08
2022-09-11T15:00:56.069Z,63.67
2022-09-11T15:03:24.081Z,64.92
2022-09-11T15:05:56.493Z,73.33
2022-09-11T15:08:23.944Z,72.86
2022-09-11T15:10:53.382Z,70.78
2022-09-11T15:13:21.054Z,68.40
2022-09-11T15:15:47.648Z,65.64
2022-09-11T15:18:14.181Z,64.16
2022-09-11T15:20:40.647Z,68.84
2022-09-11T15:23:07.288Z,67.91
2022-09-11T15:25:33.798Z,67.35
2022-09-11T15:28:00.265Z,72.72
2022-09-11T15:30:27.736Z,71.43
2022-09-11T15:32:54.933Z,69.59
2022-09-11T15:39:13.586Z,58.88
2022-09-11T15:41:40.383Z,55.61
2022-09-11T15:44:11.909Z,55.39
2022-09-11T15:46:38.395Z,52.39
2022-09-11T15:49:06.468Z,50.56
2022-09-11T15:55:20.338Z,50.20
2022-09-11T15:57:46.721Z,46.70
2022-09-11T16:00:15.120Z,48.34
2022-09-11T16:02:42.055Z,48.46
2022-09-11T16:05:08.625Z,46.30
2022-09-11T16:07:35.032Z,49.26
2022-09-11T16:10:01.472Z,50.17
2022-09-11T16:12:28.553Z,49.99
2022-09-11T16:14:55.444Z,49.22
2022-09-11T16:21:03.127Z,46.99
2022-09-11T16:23:29.551Z,47.62
2022-09-11T16:30:20.254Z,57.03
2022-09-11T16:32:31.822Z,56.74
2022-09-11T16:38:46.187Z,64.51
2022-09-11T16:41:18.792Z,64.45
2022-09-11T16:43:50.953Z,64.72
2022-09-11T16:46:22.243Z,66.07
2022-09-11T16:48:53.683Z,67.02
2022-09-11T16:55:09.646Z,61.73
2022-09-11T16:57:36.130Z,61.18
2022-09-11T17:00:03.781Z,63.48
2022-09-11T17:02:30.283Z,68.36
2022-09-11T17:04:56.740Z,72.88
2022-09-11T17:07:23.858Z,77.09
2022-09-11T17:09:51.673Z,80.16
2022-09-11T17:12:18.226Z,83.83
2022-09-11T17:14:44.651Z,89.42
2022-09-11T17:17:11.110Z,97.46
2022-09-11T17:19:37.609Z,100.00
2022-09-11T17:22:04.030Z,100.00
2022-09-11T17:24:32.229Z,100.00
2022-09-11T17:26:58.871Z,100.00
2022-09-11T17:29:25.305Z,100.00
2022-09-11T17:32:05.037Z,100.00
2022-09-11T17:34:38.238Z,100.00
2022-09-11T17:40:56.732Z,100.00
2022-09-11T17:43:23.732Z,100.00
2022-09-11T17:45:52.271Z,100.00
2022-09-11T17:48:19.862Z,100.00
2022-09-11T17:50:47.347Z,100.00
2022-09-11T17:53:13.775Z,100.00
2022-09-11T17:55:41.258Z,100.00
2022-09-11T17:58:08.144Z,100.00
2022-09-11T18:01:36.267Z,100.00
2022-09-11T18:04:03.244Z,100.00
2022-09-11T18:06:51.741Z,100.00
2022-09-11T18:09:19.730Z,100.00
2022-09-11T18:11:54.510Z,100.00
2022-09-11T18:14:20.956Z,100.00
2022-09-11T18:16:47.899Z,100.00
2022-09-11T18:19:16.082Z,100.00
2022-09-11T18:21:44.686Z,100.00
2022-09-11T18:24:19.893Z,100.00
2022-09-11T18:26:50.770Z,100.00
2022-09-11T18:29:20.087Z,100.00
2022-09-11T18:31:51.892Z,100.00
2022-09-11T18:34:23.344Z,100.00
2022-09-11T18:36:49.850Z,100.00
2022-09-11T18:39:20.969Z,100.00
2022-09-11T18:41:48.372Z,100.00
2022-09-11T18:44:19.790Z,100.00
2022-09-11T18:46:47.041Z,100.00
2022-09-11T18:49:15.036Z,100.00
2022-09-11T18:51:42.357Z,100.00
2022-09-11T18:54:16.167Z,100.00
2022-09-11T18:56:43.467Z,100.00
2022-09-11T18:59:11.385Z,100.00
2022-09-11T19:01:39.000Z,100.00
2022-09-11T19:04:07.677Z,100.00
2022-09-11T19:06:34.392Z,100.00
2022-09-11T19:09:01.721Z,100.00
2022-09-11T19:11:30.079Z,100.00
2022-09-11T19:14:02.305Z,100.00
2022-09-11T19:16:28.832Z,100.00
2022-09-11T19:18:55.407Z,100.00
2022-09-11T19:21:23.411Z,100.00
2022-09-11T19:23:53.100Z,100.00
2022-09-11T19:26:22.399Z,100.00
2022-09-11T19:28:50.278Z,100.00
2022-09-11T19:31:21.139Z,100.00
2022-09-11T19:33:48.398Z,100.00
2022-09-11T19:36:21.233Z,100.00
2022-09-11T19:38:49.555Z,100.00
2022-09-11T19:41:18.816Z,100.00
2022-09-11T19:43:45.775Z,100.00
2022-09-11T19:46:15.055Z,100.00
2022-09-11T19:48:43.379Z,100.00
2022-09-11T19:51:21.202Z,100.00
2022-09-11T19:57:28.209Z,100.00
2022-09-11T19:59:54.615Z,100.00
2022-09-11T20:02:22.426Z,100.00
2022-09-11T20:04:48.927Z,100.00
2022-09-11T20:07:15.398Z,100.00
2022-09-11T20:09:42.786Z,100.00
2022-09-11T20:12:09.277Z,100.00
2022-09-11T20:18:16.253Z,100.00
2022-09-11T20:20:45.417Z,100.00
2022-09-11T20:23:12.188Z,100.00
2022-09-11T20:25:38.660Z,100.00
2022-09-11T20:28:05.125Z,100.00
2022-09-11T20:30:32.605Z,100.00
2022-09-11T20:36:46.617Z,100.00
2022-09-11T20:39:13.682Z,100.00
2022-09-11T20:45:27.645Z,100.00
2022-09-11T20:47:54.070Z,100.00
2022-09-11T20:50:20.655Z,100.00
2022-09-11T20:52:47.197Z,100.00
2022-09-11T20:55:13.636Z,100.00
2022-09-11T20:57:40.071Z,100.00
2022-09-11T21:00:07.338Z,100.00
2022-09-11T21:02:33.779Z,100.00
2022-09-11T21:05:00.742Z,100.00
2022-09-11T21:07:27.284Z,100.00
2022-09-11T21:13:36.020Z,100.00
2022-09-11T21:16:08.120Z,100.00
2022-09-11T21:18:34.915Z,100.00
2022-09-11T21:21:04.755Z,100.00
2022-09-11T21:23:31.421Z,100.00
2022-09-11T21:25:58.284Z,100.00
2022-09-11T21:28:24.765Z,100.00
2022-09-11T21:30:51.246Z,100.00
2022-09-11T21:33:17.741Z,100.00
2022-09-11T21:35:44.189Z,100.00
2022-09-11T21:38:10.713Z,100.00
2022-09-11T21:40:37.136Z,100.00
2022-09-11T21:43:04.353Z,100.00
2022-09-11T21:45:30.788Z,100.00
2022-09-11T21:47:57.271Z,100.00
2022-09-11T21:50:23.730Z,100.00
2022-09-11T21:52:50.166Z,100.00
2022-09-11T21:55:16.956Z,100.00
2022-09-11T21:57:43.397Z,100.00
2022-09-11T22:00:13.327Z,100.00
2022-09-11T22:02:40.236Z,100.00
2022-09-11T22:05:07.277Z,100.00
2022-09-11T22:07:34.352Z,100.00
2022-09-11T22:10:01.433Z,100.00
2022-09-11T22:12:28.286Z,100.00
2022-09-11T22:14:54.943Z,100.00
2022-09-11T22:17:22.115Z,100.00
2022-09-11T22:19:48.613Z,100.00
2022-09-11T22:22:15.026Z,100.00
2022-09-11T22:24:41.609Z,100.00
2022-09-11T22:27:09.371Z,100.00
2022-09-11T22:29:35.900Z,100.00
2022-09-11T22:32:03.295Z,100.00
2022-09-11T22:34:32.626Z,100.00
2022-09-11T22:36:59.092Z,100.00
2022-09-11T22:39:25.500Z,100.00
2022-09-11T22:41:52.232Z,100.00
2022-09-11T22:44:19.776Z,100.00
2022-09-11T22:46:48.937Z,100.00
2022-09-11T22:53:02.706Z,100.00
2022-09-11T22:55:29.131Z,100.00
2022-09-11T22:57:55.543Z,100.00
2022-09-11T23:00:22.086Z,100.00
2022-09-11T23:02:48.489Z,100.00
2022-09-11T23:05:33.505Z,100.00
2022-09-11T23:07:59.999Z,100.00
2022-09-11T23:10:26.577Z,100.00
2022-09-11T23:12:53.093Z,100.00
2022-09-11T23:15:19.927Z,100.00
2022-09-11T23:17:46.839Z,100.00
2022-09-11T23:20:13.319Z,100.00
2022-09-11T23:22:39.727Z,100.00
2022-09-11T23:25:07.155Z,100.00
2022-09-11T23:27:33.625Z,100.00
2022-09-11T23:30:00.050Z,100.00
2022-09-11T23:32:26.501Z,100.00
2022-09-11T23:34:52.933Z,100.00
2022-09-11T23:37:19.467Z,100.00
2022-09-11T23:39:46.641Z,100.00
2022-09-11T23:45:59.740Z,100.00
2022-09-11T23:48:26.183Z,100.00
2022-09-11T23:50:52.690Z,100.00
2022-09-11T23:53:19.167Z,100.00
2022-09-11T23:55:51.622Z,100.00
2022-09-11T23:58:18.056Z,100.00
